createdAt,value
2023-10-11T00:00:53.015Z,4.88
2023-10-11T00:03:26.014Z,4.60
2023-10-11T00:05:49.160Z,4.55
2023-10-11T00:08:17.665Z,5.10
2023-10-11T00:10:44.161Z,5.20
2023-10-11T00:13:08.639Z,5.10
2023-10-11T00:17:52.459Z,4.90
2023-10-11T00:20:30.436Z,5.10
2023-10-11T00:22:52.518Z,5.17
2023-10-11T00:25:24.656Z,5.73
2023-10-11T00:27:47.210Z,5.00
2023-10-11T00:30:10.467Z,4.97
2023-10-11T00:32:32.971Z,5.07
2023-10-11T00:34:55.587Z,5.30
2023-10-11T00:37:17.674Z,4.80
2023-10-11T00:39:39.347Z,4.80
2023-10-11T00:42:01.147Z,5.03
2023-10-11T00:44:23.108Z,5.60
2023-10-11T00:46:58.333Z,5.27
2023-10-11T00:49:21.443Z,5.45
2023-10-11T00:51:47.809Z,5.10
2023-10-11T00:54:14.339Z,4.70
2023-10-11T00:56:36.184Z,4.77
2023-10-11T00:59:04.355Z,5.20
2023-10-11T01:01:27.536Z,5.13
2023-10-11T01:03:50.062Z,4.67
2023-10-11T01:06:12.206Z,5.00
2023-10-11T01:08:40.060Z,4.63
2023-10-11T01:11:02.260Z,4.83
2023-10-11T01:13:24.403Z,4.60
2023-10-11T01:15:46.223Z,5.13
2023-10-11T01:18:08.089Z,5.40
2023-10-11T01:20:32.645Z,5.20
2023-10-11T01:22:54.754Z,5.00
2023-10-11T01:25:22.787Z,4.57
2023-10-11T01:27:46.090Z,5.03
2023-10-11T01:30:10.596Z,5.30
2023-10-11T01:34:54.441Z,5.00
2023-10-11T01:37:19.065Z,5.07
2023-10-11T01:39:40.833Z,4.57
2023-10-11T01:42:03.088Z,5.30
2023-10-11T01:44:26.670Z,5.25
2023-10-11T01:46:49.390Z,5.17
2023-10-11T01:49:12.032Z,5.40
2023-10-11T01:51:40.248Z,4.53
2023-10-11T01:54:02.088Z,4.77
2023-10-11T01:56:27.320Z,5.30
2023-10-11T01:58:49.200Z,5.33
2023-10-11T02:01:24.081Z,5.03
2023-10-11T02:06:09.187Z,4.87
2023-10-11T02:08:31.317Z,5.53
2023-10-11T02:10:53.837Z,5.80
2023-10-11T02:13:16.438Z,4.87
2023-10-11T02:15:41.128Z,5.23
2023-10-11T02:18:09.178Z,5.28
2023-10-11T02:20:32.587Z,5.97
2023-10-11T02:23:14.317Z,6.10
2023-10-11T02:25:36.039Z,5.83
2023-10-11T02:27:59.835Z,5.20
2023-10-11T02:30:27.003Z,5.22
2023-10-11T02:32:50.403Z,5.70
2023-10-11T02:35:14.933Z,4.83
2023-10-11T02:40:00.306Z,5.33
2023-10-11T02:42:22.045Z,5.87
2023-10-11T02:44:43.775Z,5.30
2023-10-11T02:47:07.917Z,5.43
2023-10-11T02:49:33.462Z,5.50
2023-10-11T02:51:58.578Z,5.13
2023-10-11T02:54:40.898Z,5.60
2023-10-11T02:57:20.751Z,5.30
2023-10-11T03:00:01.046Z,5.57
2023-10-11T03:02:44.548Z,6.17
2023-10-11T03:05:07.972Z,6.43
2023-10-11T03:07:34.286Z,4.87
2023-10-11T03:09:56.795Z,5.77
2023-10-11T03:12:32.547Z,5.57
2023-10-11T03:14:56.103Z,5.53
2023-10-11T03:17:21.265Z,5.57
2023-10-11T03:19:44.795Z,6.00
2023-10-11T03:22:06.504Z,5.60
2023-10-11T03:24:34.202Z,6.37
2023-10-11T03:26:56.145Z,5.33
2023-10-11T03:29:22.663Z,5.93
2023-10-11T03:31:45.048Z,6.63
2023-10-11T03:34:16.041Z,5.70
2023-10-11T03:36:53.445Z,5.90
2023-10-11T03:39:17.537Z,6.10
2023-10-11T03:41:46.629Z,5.85
2023-10-11T03:44:11.260Z,5.93
2023-10-11T03:49:04.449Z,6.50
2023-10-11T03:51:26.440Z,6.20
2023-10-11T03:53:49.165Z,6.60
2023-10-11T03:56:11.033Z,5.80
2023-10-11T03:58:33.624Z,6.00
2023-10-11T04:01:01.948Z,6.60
2023-10-11T04:03:24.718Z,6.27
2023-10-11T04:05:49.110Z,5.90
2023-10-11T04:08:12.797Z,5.95
2023-10-11T04:10:43.448Z,6.27
2023-10-11T04:13:15.722Z,6.93
2023-10-11T04:15:41.713Z,6.37
2023-10-11T04:18:15.552Z,6.50
2023-10-11T04:20:41.371Z,6.78
2023-10-11T04:23:15.228Z,6.80
2023-10-11T04:25:38.377Z,6.57
2023-10-11T04:28:03.543Z,6.80
2023-10-11T04:30:42.021Z,6.40
2023-10-11T04:33:04.216Z,7.50
2023-10-11T04:35:27.016Z,6.37
2023-10-11T04:38:02.344Z,6.60
2023-10-11T04:40:39.840Z,6.70
2023-10-11T04:43:06.323Z,7.37
2023-10-11T04:45:44.307Z,6.90
2023-10-11T04:48:20.033Z,6.40
2023-10-11T04:50:49.431Z,6.90
2023-10-11T04:53:18.324Z,6.27
2023-10-11T04:55:42.497Z,6.60
2023-10-11T04:58:08.697Z,6.70
2023-10-11T05:00:44.984Z,6.43
2023-10-11T05:03:06.895Z,6.53
2023-10-11T05:05:28.620Z,6.63
2023-10-11T05:08:02.619Z,6.30
2023-10-11T05:10:30.137Z,6.63
2023-10-11T05:12:59.177Z,7.37
2023-10-11T05:15:30.224Z,6.60
2023-10-11T05:18:00.321Z,6.90
2023-10-11T05:20:24.376Z,7.07
2023-10-11T05:22:49.076Z,6.65
2023-10-11T05:27:58.412Z,6.97
2023-10-11T05:30:26.238Z,6.60
2023-10-11T05:32:51.411Z,7.07
2023-10-11T05:35:16.059Z,7.17
2023-10-11T05:40:36.686Z,7.20
2023-10-11T05:43:16.910Z,7.37
2023-10-11T05:45:57.832Z,6.63
2023-10-11T05:48:38.371Z,7.27
2023-10-11T05:51:00.751Z,7.17
2023-10-11T05:53:25.295Z,7.40
2023-10-11T05:55:47.373Z,7.35
2023-10-11T05:58:09.620Z,7.70
2023-10-11T06:00:35.618Z,7.20
2023-10-11T06:02:57.463Z,7.27
2023-10-11T06:05:24.800Z,6.90
2023-10-11T06:07:52.365Z,7.57
2023-10-11T06:10:20.944Z,7.03
2023-10-11T06:12:42.683Z,7.57
2023-10-11T06:15:13.754Z,7.47
2023-10-11T06:17:43.579Z,7.80
2023-10-11T06:20:24.844Z,7.93
2023-10-11T06:22:46.912Z,7.60
2023-10-11T06:25:09.614Z,7.57
2023-10-11T06:27:52.128Z,7.70
2023-10-11T06:30:18.506Z,7.87
2023-10-11T06:32:43.975Z,7.23
2023-10-11T06:35:07.027Z,8.23
2023-10-11T06:37:35.815Z,7.87
2023-10-11T06:39:59.973Z,8.67
2023-10-11T06:42:24.909Z,8.15
2023-10-11T06:44:52.741Z,7.53
2023-10-11T06:47:16.168Z,7.90
2023-10-11T06:49:45.331Z,7.97
2023-10-11T06:52:23.199Z,8.83
2023-10-11T06:54:50.742Z,7.57
2023-10-11T06:57:18.259Z,7.93
2023-10-11T06:59:43.190Z,7.77
2023-10-11T07:02:18.671Z,8.23
2023-10-11T07:04:52.028Z,8.50
2023-10-11T07:07:34.032Z,7.83
2023-10-11T07:09:58.622Z,7.73
2023-10-11T07:14:51.516Z,7.87
2023-10-11T07:17:13.984Z,8.03
2023-10-11T07:19:37.619Z,8.10
2023-10-11T07:22:04.210Z,7.70
2023-10-11T07:24:32.461Z,7.40
2023-10-11T07:26:57.494Z,8.40
2023-10-11T07:29:22.473Z,7.50
2023-10-11T07:31:50.817Z,8.20
2023-10-11T07:34:18.252Z,7.73
2023-10-11T07:36:42.030Z,8.13
2023-10-11T07:39:21.516Z,7.90
2023-10-11T07:42:11.045Z,7.77
2023-10-11T07:44:37.907Z,7.73
2023-10-11T07:46:59.931Z,8.27
2023-10-11T07:49:25.747Z,8.00
2023-10-11T07:51:47.676Z,7.97
2023-10-11T07:54:20.733Z,7.60
2023-10-11T07:56:44.853Z,8.13
2023-10-11T07:59:10.904Z,8.10
2023-10-11T08:01:32.747Z,8.57
2023-10-11T08:03:55.410Z,7.75
2023-10-11T08:06:17.243Z,8.10
2023-10-11T08:08:40.026Z,8.77
2023-10-11T08:11:07.379Z,8.30
2023-10-11T08:13:29.624Z,8.35
2023-10-11T08:15:59.148Z,8.00
2023-10-11T08:18:21.346Z,8.38
2023-10-11T08:21:03.173Z,8.07
2023-10-11T08:23:33.853Z,8.20
2023-10-11T08:25:58.020Z,8.00
2023-10-11T08:28:29.049Z,8.45
2023-10-11T08:30:51.711Z,7.93
2023-10-11T08:33:14.316Z,8.25
2023-10-11T08:35:36.225Z,8.75
2023-10-11T08:38:03.463Z,8.10
2023-10-11T08:40:30.735Z,8.13
2023-10-11T08:42:53.659Z,8.02
2023-10-11T08:45:29.388Z,7.60
2023-10-11T08:47:54.374Z,8.35
2023-10-11T08:50:20.322Z,8.27
2023-10-11T08:52:42.895Z,8.55
2023-10-11T08:55:09.843Z,7.57
2023-10-11T08:57:33.217Z,8.43
2023-10-11T08:59:58.425Z,8.05
2023-10-11T09:02:20.656Z,8.13
2023-10-11T09:05:22.229Z,7.65
2023-10-11T09:07:46.937Z,8.35
2023-10-11T09:10:29.886Z,8.38
2023-10-11T09:12:57.334Z,7.90
2023-10-11T09:15:19.344Z,8.35
2023-10-11T09:17:41.210Z,8.00
2023-10-11T09:20:16.182Z,8.73
2023-10-11T09:22:51.171Z,8.48
2023-10-11T09:27:50.216Z,10.27
2023-10-11T09:30:24.071Z,9.48
2023-10-11T09:33:18.182Z,11.50
2023-10-11T09:35:40.063Z,10.52
2023-10-11T09:38:01.890Z,11.93
2023-10-11T09:40:37.758Z,12.32
2023-10-11T09:43:04.009Z,12.35
2023-10-11T09:45:43.756Z,12.57
2023-10-11T09:48:07.359Z,14.05
2023-10-11T09:50:31.561Z,13.73
2023-10-11T09:52:54.809Z,13.48
2023-10-11T09:55:35.857Z,15.60
2023-10-11T09:58:12.495Z,13.68
2023-10-11T10:01:01.220Z,14.63
2023-10-11T10:03:26.362Z,14.57
2023-10-11T10:06:23.265Z,14.90
2023-10-11T10:09:23.258Z,15.23
2023-10-11T10:12:12.716Z,15.20
2023-10-11T10:14:37.168Z,14.63
2023-10-11T10:17:12.279Z,16.52
2023-10-11T10:19:40.954Z,15.75
2023-10-11T10:22:24.188Z,16.13
2023-10-11T10:24:48.424Z,15.95
2023-10-11T10:27:36.891Z,15.93
2023-10-11T10:30:01.633Z,15.43
2023-10-11T10:32:24.762Z,16.05
2023-10-11T10:34:46.888Z,16.15
2023-10-11T10:37:09.328Z,16.20
2023-10-11T10:39:37.469Z,16.92
2023-10-11T10:42:14.904Z,17.33
2023-10-11T10:44:56.718Z,16.88
2023-10-11T10:47:29.511Z,17.13
2023-10-11T10:49:54.428Z,17.35
2023-10-11T10:52:18.177Z,16.60
2023-10-11T10:54:39.995Z,16.35
2023-10-11T10:57:04.654Z,16.33
2023-10-11T11:01:52.053Z,14.75
2023-10-11T11:04:21.957Z,15.98
2023-10-11T11:06:50.524Z,16.55
2023-10-11T11:09:20.161Z,16.60
2023-10-11T11:11:50.400Z,16.80
2023-10-11T11:14:15.034Z,16.70
2023-10-11T11:16:42.309Z,17.05
2023-10-11T11:19:18.442Z,16.40
2023-10-11T11:21:45.893Z,17.23
2023-10-11T11:24:20.279Z,15.88
2023-10-11T11:26:42.552Z,17.08
2023-10-11T11:29:12.517Z,16.92
2023-10-11T11:31:53.505Z,17.77
2023-10-11T11:34:28.301Z,16.88
2023-10-11T11:39:30.846Z,17.85
2023-10-11T11:41:58.646Z,16.27
2023-10-11T11:44:22.645Z,17.42
2023-10-11T11:46:44.898Z,17.85
2023-10-11T11:49:12.355Z,17.63
2023-10-11T11:51:34.229Z,17.35
2023-10-11T11:53:56.756Z,16.60
2023-10-11T11:56:18.578Z,16.35
2023-10-11T11:58:46.862Z,17.15
2023-10-11T12:01:16.661Z,16.73
2023-10-11T12:03:39.138Z,17.00
2023-10-11T12:06:01.081Z,17.23
2023-10-11T12:08:24.693Z,16.67
2023-10-11T12:10:50.975Z,16.83
2023-10-11T12:13:15.149Z,16.20
2023-10-11T12:15:37.133Z,15.80
2023-10-11T12:17:59.337Z,15.32
2023-10-11T12:20:23.475Z,15.18
2023-10-11T12:22:46.331Z,14.55
2023-10-11T12:25:08.857Z,14.52
2023-10-11T12:27:31.351Z,14.23
2023-10-11T12:30:08.075Z,14.40
2023-10-11T12:32:34.723Z,13.77
2023-10-11T12:34:56.867Z,14.27
2023-10-11T12:37:18.755Z,15.13
2023-10-11T12:39:40.505Z,14.05
2023-10-11T12:42:02.436Z,13.25
2023-10-11T12:44:24.316Z,13.80
2023-10-11T12:46:50.375Z,13.25
2023-10-11T12:49:15.023Z,13.90
2023-10-11T12:51:37.169Z,13.20
2023-10-11T12:53:59.275Z,12.20
2023-10-11T12:56:26.849Z,12.55
2023-10-11T12:58:51.580Z,11.98
2023-10-11T13:01:15.037Z,12.00
2023-10-11T13:03:40.336Z,12.88
2023-10-11T13:06:22.263Z,12.73
2023-10-11T13:08:44.145Z,12.93
2023-10-11T13:11:12.734Z,12.82
2023-10-11T13:13:35.684Z,12.55
2023-10-11T13:16:00.851Z,10.98
2023-10-11T13:18:23.823Z,11.90
2023-10-11T13:20:46.208Z,11.68
2023-10-11T13:23:08.278Z,11.60
2023-10-11T13:25:34.056Z,11.70
2023-10-11T13:27:56.290Z,12.02
2023-10-11T13:30:18.208Z,10.63
2023-10-11T13:32:41.349Z,11.18
2023-10-11T13:35:06.791Z,10.65
2023-10-11T13:37:32.000Z,10.90
2023-10-11T13:39:53.978Z,10.70
2023-10-11T13:42:38.709Z,10.32
2023-10-11T13:45:00.872Z,11.32
2023-10-11T13:47:22.767Z,11.07
2023-10-11T13:49:48.736Z,10.88
2023-10-11T13:52:10.610Z,11.32
2023-10-11T13:54:38.040Z,11.32
2023-10-11T13:57:12.272Z,11.07
2023-10-11T13:59:38.984Z,11.73
2023-10-11T14:02:01.497Z,10.30
2023-10-11T14:04:59.174Z,10.73
2023-10-11T14:07:24.192Z,11.25
2023-10-11T14:09:47.150Z,10.27
2023-10-11T14:12:13.109Z,10.27
2023-10-11T14:14:40.778Z,10.60
2023-10-11T14:17:26.190Z,10.55
2023-10-11T14:20:21.076Z,10.88
2023-10-11T14:23:06.112Z,10.25
2023-10-11T14:25:36.778Z,10.50
2023-10-11T14:28:19.132Z,10.32
2023-10-11T14:31:01.142Z,11.35
2023-10-11T14:33:23.832Z,10.68
2023-10-11T14:35:49.686Z,11.15
2023-10-11T14:38:15.425Z,11.50
2023-10-11T14:40:37.195Z,10.23
2023-10-11T14:42:58.937Z,11.15
2023-10-11T14:45:23.874Z,9.07
2023-10-11T14:47:48.986Z,9.90
2023-10-11T14:50:12.330Z,9.55
2023-10-11T14:52:34.130Z,9.05
2023-10-11T14:54:55.993Z,8.68
2023-10-11T14:57:18.910Z,9.43
2023-10-11T14:59:41.029Z,9.02
2023-10-11T15:02:06.529Z,8.10
2023-10-11T15:04:29.678Z,8.48
2023-10-11T15:06:53.429Z,8.35
2023-10-11T15:09:17.804Z,7.72
2023-10-11T15:11:40.152Z,7.80
2023-10-11T15:14:05.058Z,7.93
2023-10-11T15:16:27.997Z,7.45
2023-10-11T15:18:52.396Z,7.75
2023-10-11T15:23:39.266Z,7.13
2023-10-11T15:26:04.521Z,7.68
2023-10-11T15:28:31.870Z,7.07
2023-10-11T15:30:55.002Z,6.95
2023-10-11T15:33:19.296Z,7.25
2023-10-11T15:35:41.484Z,6.38
2023-10-11T15:38:06.468Z,6.82
2023-10-11T15:40:32.985Z,7.38
2023-10-11T15:43:15.185Z,6.32
2023-10-11T15:45:37.768Z,7.07
2023-10-11T15:47:59.599Z,7.38
2023-10-11T15:50:24.290Z,6.43
2023-10-11T15:52:53.563Z,6.57
2023-10-11T15:55:16.707Z,6.40
2023-10-11T15:57:39.246Z,5.97
2023-10-11T16:00:02.587Z,6.28
2023-10-11T16:02:34.651Z,6.28
2023-10-11T16:04:56.571Z,6.15
2023-10-11T16:07:18.366Z,6.38
2023-10-11T16:09:41.981Z,5.90
2023-10-11T16:12:04.595Z,6.65
2023-10-11T16:14:27.162Z,6.70
2023-10-11T16:16:52.728Z,6.63
2023-10-11T16:19:14.545Z,5.82
2023-10-11T16:21:36.917Z,7.00
2023-10-11T16:24:00.406Z,6.53
2023-10-11T16:26:22.619Z,6.90
2023-10-11T16:28:44.743Z,6.65
2023-10-11T16:31:07.415Z,6.10
2023-10-11T16:33:30.874Z,6.40
2023-10-11T16:35:54.637Z,7.00
2023-10-11T16:38:16.452Z,5.65
2023-10-11T16:40:38.263Z,5.97
2023-10-11T16:43:00.630Z,6.82
2023-10-11T16:45:27.995Z,5.80
2023-10-11T16:47:50.070Z,6.10
2023-10-11T16:50:13.131Z,6.40
2023-10-11T16:52:35.197Z,6.32
2023-10-11T16:55:00.892Z,6.20
2023-10-11T16:57:22.630Z,6.35
2023-10-11T16:59:44.823Z,6.43
2023-10-11T17:02:06.918Z,5.22
2023-10-11T17:04:29.799Z,6.15
2023-10-11T17:06:54.510Z,5.28
2023-10-11T17:09:16.319Z,5.47
2023-10-11T17:11:38.050Z,5.75
2023-10-11T17:14:00.053Z,5.20
2023-10-11T17:16:22.076Z,5.15
2023-10-11T17:18:48.136Z,5.10
2023-10-11T17:21:12.583Z,5.13
2023-10-11T17:23:35.438Z,5.18
2023-10-11T17:28:56.975Z,5.45
2023-10-11T17:31:38.801Z,4.47
2023-10-11T17:34:20.590Z,5.25
2023-10-11T17:37:02.338Z,4.80
2023-10-11T17:39:32.184Z,5.25
2023-10-11T17:41:56.005Z,5.30
2023-10-11T17:44:17.877Z,4.88
2023-10-11T17:46:39.857Z,5.13
2023-10-11T17:49:01.755Z,4.97
2023-10-11T17:51:23.575Z,6.00
2023-10-11T17:53:45.653Z,5.05
2023-10-11T17:56:07.638Z,5.10
2023-10-11T17:58:29.569Z,5.25
2023-10-11T18:00:51.934Z,5.30
2023-10-11T18:03:13.767Z,5.78
2023-10-11T18:05:38.786Z,5.55
2023-10-11T18:08:00.675Z,5.57
2023-10-11T18:10:22.567Z,5.78
2023-10-11T18:12:50.016Z,5.00
2023-10-11T18:15:12.472Z,5.07
2023-10-11T18:17:41.083Z,5.45
2023-10-11T18:20:03.012Z,5.15
2023-10-11T18:22:30.403Z,5.05
2023-10-11T18:24:52.061Z,4.95
2023-10-11T18:27:14.549Z,5.30
2023-10-11T18:29:36.574Z,4.90
2023-10-11T18:32:02.795Z,4.85
2023-10-11T18:34:44.524Z,4.43
2023-10-11T18:37:22.254Z,5.10
2023-10-11T18:40:19.728Z,4.40
2023-10-11T18:43:02.227Z,5.07
2023-10-11T18:45:32.919Z,4.70
2023-10-11T18:48:14.781Z,4.93
2023-10-11T18:50:56.623Z,4.00
2023-10-11T18:53:24.756Z,4.57
2023-10-11T18:56:06.446Z,4.50
2023-10-11T18:58:48.567Z,4.70
2023-10-11T19:01:18.102Z,4.07
2023-10-11T19:04:02.227Z,3.80
2023-10-11T19:06:49.109Z,4.82
2023-10-11T19:09:14.190Z,4.28
2023-10-11T19:11:57.682Z,4.60
2023-10-11T19:14:19.585Z,4.35
2023-10-11T19:16:41.832Z,4.20
2023-10-11T19:19:03.703Z,4.18
2023-10-11T19:21:29.625Z,3.90
2023-10-11T19:23:55.331Z,4.05
2023-10-11T19:26:19.246Z,4.55
2023-10-11T19:28:41.410Z,3.92
2023-10-11T19:31:03.324Z,3.92
2023-10-11T19:33:27.286Z,4.00
2023-10-11T19:35:49.421Z,4.40
2023-10-11T19:38:12.073Z,4.35
2023-10-11T19:41:03.978Z,4.70
2023-10-11T19:43:28.489Z,3.70
2023-10-11T19:46:16.249Z,4.30
2023-10-11T19:48:58.050Z,3.63
2023-10-11T19:51:40.743Z,4.07
2023-10-11T19:54:03.236Z,4.25
2023-10-11T19:56:44.890Z,4.38
2023-10-11T19:59:27.580Z,3.90
2023-10-11T20:02:09.245Z,3.83
2023-10-11T20:04:51.068Z,4.45
2023-10-11T20:07:15.241Z,3.88
2023-10-11T20:09:37.850Z,3.90
2023-10-11T20:11:59.781Z,4.15
2023-10-11T20:14:21.503Z,4.40
2023-10-11T20:16:43.737Z,3.90
2023-10-11T20:19:05.766Z,4.45
2023-10-11T20:21:27.718Z,3.90
2023-10-11T20:23:55.427Z,5.18
2023-10-11T20:26:23.601Z,4.30
2023-10-11T20:28:50.763Z,3.92
2023-10-11T20:31:13.141Z,4.18
2023-10-11T20:33:58.261Z,4.85
2023-10-11T20:36:22.172Z,4.68
2023-10-11T20:39:09.725Z,4.50
2023-10-11T20:41:32.316Z,4.55
2023-10-11T20:44:07.590Z,4.40
2023-10-11T20:46:35.614Z,4.20
2023-10-11T20:48:57.504Z,4.47
2023-10-11T20:51:19.707Z,4.35
2023-10-11T20:53:41.840Z,4.45
2023-10-11T20:56:05.006Z,4.32
2023-10-11T20:58:27.101Z,4.88
2023-10-11T21:00:51.160Z,4.25
2023-10-11T21:03:14.697Z,4.10
2023-10-11T21:05:42.380Z,4.45
2023-10-11T21:08:05.960Z,4.55
2023-10-11T21:10:32.787Z,4.43
2023-10-11T21:13:19.695Z,4.05
2023-10-11T21:15:43.766Z,4.32
2023-10-11T21:18:25.709Z,4.13
2023-10-11T21:20:55.961Z,4.38
2023-10-11T21:23:38.869Z,4.28
2023-10-11T21:26:04.498Z,4.78
2023-10-11T21:28:26.386Z,4.45
2023-10-11T21:30:50.614Z,4.53
2023-10-11T21:33:15.517Z,4.63
2023-10-11T21:35:37.648Z,4.90
2023-10-11T21:37:59.652Z,4.90
2023-10-11T21:40:26.094Z,4.57
2023-10-11T21:42:50.696Z,4.47
2023-10-11T21:47:45.586Z,5.43
2023-10-11T21:50:13.882Z,5.53
2023-10-11T21:52:37.164Z,4.75
2023-10-11T21:55:01.283Z,6.15
2023-10-11T21:57:51.427Z,5.53
2023-10-11T22:00:52.855Z,5.22
2023-10-11T22:03:19.945Z,5.32
2023-10-11T22:05:42.406Z,5.07
2023-10-11T22:08:06.022Z,5.85
2023-10-11T22:10:31.824Z,4.90
2023-10-11T22:12:53.676Z,5.05
2023-10-11T22:15:16.107Z,4.70
2023-10-11T22:17:38.224Z,5.25
2023-10-11T22:20:05.674Z,5.75
2023-10-11T22:22:28.612Z,5.30
2023-10-11T22:24:50.956Z,5.60
2023-10-11T22:27:13.560Z,5.40
2023-10-11T22:29:55.310Z,5.25
2023-10-11T22:32:19.529Z,5.32
2023-10-11T22:34:42.308Z,5.75
2023-10-11T22:37:31.052Z,5.38
2023-10-11T22:40:19.309Z,5.50
2023-10-11T22:43:10.140Z,5.50
2023-10-11T22:45:40.245Z,4.82
2023-10-11T22:48:22.241Z,4.63
2023-10-11T22:50:44.912Z,5.35
2023-10-11T22:53:06.736Z,5.40
2023-10-11T22:55:32.708Z,6.00
2023-10-11T22:57:54.982Z,5.22
2023-10-11T23:00:21.217Z,5.53
2023-10-11T23:02:43.806Z,5.60
2023-10-11T23:05:07.427Z,5.82
2023-10-11T23:07:29.840Z,5.80
2023-10-11T23:09:56.462Z,6.38
2023-10-11T23:12:22.082Z,6.28
2023-10-11T23:14:46.193Z,6.10
2023-10-11T23:17:30.189Z,6.88
2023-10-11T23:20:12.869Z,6.68
2023-10-11T23:22:37.977Z,6.43
2023-10-11T23:25:29.461Z,6.35
2023-10-11T23:28:13.848Z,6.65
2023-10-11T23:30:42.780Z,6.75
2023-10-11T23:33:10.025Z,6.95
2023-10-11T23:35:31.937Z,6.53
2023-10-11T23:37:53.616Z,6.65
2023-10-11T23:40:44.618Z,7.05
2023-10-11T23:43:08.294Z,7.33
2023-10-11T23:45:33.660Z,7.65
2023-10-11T23:47:56.724Z,8.05
2023-10-11T23:50:21.906Z,7.38
2023-10-11T23:52:45.403Z,8.10
2023-10-11T23:55:07.925Z,8.63
2023-10-11T23:57:33.460Z,9.38
